createdAt,value
2019-02-27T00:00:48.031Z,1.90
2019-02-27T00:01:49.854Z,2.90
2019-02-27T00:02:48.012Z,1.70
2019-02-27T00:03:48.004Z,2.40
2019-02-27T00:04:48.048Z,3.70
2019-02-27T00:05:47.981Z,2.90
2019-02-27T00:06:48.613Z,3.30
2019-02-27T00:07:47.959Z,1.90
2019-02-27T00:08:47.950Z,2.00
2019-02-27T00:09:47.937Z,2.40
2019-02-27T00:10:47.962Z,2.20
2019-02-27T00:11:47.913Z,2.70
2019-02-27T00:12:51.715Z,2.00
2019-02-27T00:13:47.889Z,2.80
2019-02-27T00:14:47.885Z,3.30
2019-02-27T00:15:47.867Z,5.60
2019-02-27T00:16:47.894Z,8.20
2019-02-27T00:17:51.156Z,6.90
2019-02-27T00:18:47.846Z,9.40
2019-02-27T00:19:47.826Z,7.70
2019-02-27T00:20:47.820Z,5.80
2019-02-27T00:21:47.804Z,5.90
2019-02-27T00:22:50.548Z,5.80
2019-02-27T00:23:47.782Z,5.50
2019-02-27T00:24:47.777Z,10.10
2019-02-27T00:25:47.765Z,10.90
2019-02-27T00:26:47.748Z,15.10
2019-02-27T00:27:49.319Z,13.30
2019-02-27T00:28:47.765Z,14.50
2019-02-27T00:30:04.633Z,11.20
2019-02-27T00:30:48.709Z,10.20
2019-02-27T00:31:47.713Z,10.00
2019-02-27T00:32:51.046Z,6.90
2019-02-27T00:33:47.675Z,5.30
2019-02-27T00:34:47.697Z,3.50
2019-02-27T00:35:47.652Z,2.30
2019-02-27T00:36:47.673Z,3.80
2019-02-27T00:37:51.806Z,3.10
2019-02-27T00:38:47.630Z,3.00
2019-02-27T00:39:47.607Z,2.60
2019-02-27T00:40:47.774Z,2.80
2019-02-27T00:41:47.599Z,2.90
2019-02-27T00:42:47.577Z,2.70
2019-02-27T00:43:47.569Z,3.70
2019-02-27T00:44:47.559Z,1.80
2019-02-27T00:45:47.548Z,3.20
2019-02-27T00:46:47.686Z,3.30
2019-02-27T00:47:47.530Z,2.70
2019-02-27T00:48:47.520Z,2.50
2019-02-27T00:49:47.504Z,3.70
2019-02-27T00:50:47.489Z,2.10
2019-02-27T00:51:47.477Z,2.80
2019-02-27T00:52:50.873Z,1.90
2019-02-27T00:53:47.460Z,2.50
2019-02-27T00:54:47.455Z,2.10
2019-02-27T00:55:47.438Z,2.70
2019-02-27T00:56:47.432Z,2.60
2019-02-27T00:57:47.419Z,3.20
2019-02-27T00:58:47.444Z,2.40
2019-02-27T00:59:47.394Z,3.80
2019-02-27T01:00:59.921Z,2.50
2019-02-27T01:01:47.985Z,2.20
2019-02-27T01:02:47.361Z,3.00
2019-02-27T01:03:47.346Z,2.70
2019-02-27T01:04:47.371Z,3.10
2019-02-27T01:05:47.339Z,1.60
2019-02-27T01:06:48.160Z,2.20
2019-02-27T01:07:47.313Z,2.30
2019-02-27T01:08:47.295Z,5.80
2019-02-27T01:09:47.289Z,1.70
2019-02-27T01:10:47.320Z,2.80
2019-02-27T01:11:51.521Z,1.80
2019-02-27T01:12:48.066Z,1.50
2019-02-27T01:13:47.253Z,2.00
2019-02-27T01:14:47.230Z,1.70
2019-02-27T01:15:47.222Z,1.80
2019-02-27T01:16:47.686Z,1.10
2019-02-27T01:17:47.201Z,1.90
2019-02-27T01:18:47.183Z,1.70
2019-02-27T01:19:47.178Z,1.70
2019-02-27T01:20:47.174Z,2.60
2019-02-27T01:21:47.544Z,1.30
2019-02-27T01:22:47.335Z,2.40
2019-02-27T01:23:47.152Z,2.30
2019-02-27T01:24:49.968Z,1.30
2019-02-27T01:25:47.128Z,1.70
2019-02-27T01:26:47.113Z,2.40
2019-02-27T01:27:47.104Z,2.40
2019-02-27T01:28:47.253Z,2.30
2019-02-27T01:29:50.752Z,2.60
2019-02-27T01:30:47.080Z,3.40
2019-02-27T01:31:59.411Z,1.80
2019-02-27T01:32:47.034Z,2.80
2019-02-27T01:33:47.027Z,2.10
2019-02-27T01:34:47.056Z,2.90
2019-02-27T01:35:51.292Z,2.40
2019-02-27T01:36:47.991Z,2.70
2019-02-27T01:37:46.992Z,2.90
2019-02-27T01:38:46.975Z,2.70
2019-02-27T01:39:46.970Z,1.70
2019-02-27T01:40:48.996Z,4.30
2019-02-27T01:41:46.942Z,2.70
2019-02-27T01:42:46.933Z,2.50
2019-02-27T01:43:46.932Z,3.10
2019-02-27T01:44:47.248Z,2.00
2019-02-27T01:45:46.892Z,2.30
2019-02-27T01:46:46.926Z,1.60
2019-02-27T01:47:46.875Z,3.30
2019-02-27T01:48:46.861Z,1.80
2019-02-27T01:49:49.151Z,1.60
2019-02-27T01:50:46.844Z,1.60
2019-02-27T01:51:46.830Z,2.40
2019-02-27T01:52:46.857Z,3.20
2019-02-27T01:53:46.810Z,1.90
2019-02-27T01:54:48.952Z,1.80
2019-02-27T01:55:46.796Z,3.60
2019-02-27T01:56:46.783Z,2.60
2019-02-27T01:57:46.768Z,3.20
2019-02-27T01:58:46.795Z,2.20
2019-02-27T01:59:50.032Z,1.80
2019-02-27T02:00:46.738Z,2.70
2019-02-27T02:01:46.723Z,2.20
2019-02-27T02:02:59.215Z,2.20
2019-02-27T02:03:47.553Z,2.20
2019-02-27T02:04:46.861Z,2.60
2019-02-27T02:05:46.678Z,1.40
2019-02-27T02:06:46.672Z,1.50
2019-02-27T02:07:46.657Z,3.10
2019-02-27T02:08:48.224Z,1.60
2019-02-27T02:09:46.632Z,1.80
2019-02-27T02:10:46.800Z,1.70
2019-02-27T02:11:46.616Z,2.80
2019-02-27T02:12:46.607Z,2.50
2019-02-27T02:13:48.265Z,3.10
2019-02-27T02:14:46.584Z,1.40
2019-02-27T02:15:46.573Z,2.50
2019-02-27T02:16:46.577Z,2.40
2019-02-27T02:17:46.570Z,3.00
2019-02-27T02:18:48.129Z,2.40
2019-02-27T02:19:46.531Z,2.10
2019-02-27T02:20:46.522Z,1.70
2019-02-27T02:21:46.576Z,2.00
2019-02-27T02:22:46.493Z,2.10
2019-02-27T02:23:47.908Z,2.20
2019-02-27T02:24:46.480Z,2.40
2019-02-27T02:25:46.467Z,1.90
2019-02-27T02:26:46.458Z,1.60
2019-02-27T02:27:46.474Z,3.20
2019-02-27T02:28:48.236Z,3.80
2019-02-27T02:29:46.426Z,1.50
2019-02-27T02:30:46.413Z,2.80
2019-02-27T02:31:46.400Z,1.50
2019-02-27T02:32:51.999Z,2.40
2019-02-27T02:35:01.342Z,1.70
2019-02-27T02:36:01.296Z,1.60
2019-02-27T02:37:02.553Z,2.00
2019-02-27T02:38:01.272Z,2.10
2019-02-27T02:39:01.264Z,2.00
2019-02-27T02:40:01.256Z,1.40
2019-02-27T02:41:01.246Z,2.90
2019-02-27T02:42:01.233Z,2.30
2019-02-27T02:43:03.105Z,2.10
2019-02-27T02:44:01.207Z,2.10
2019-02-27T02:45:01.237Z,2.90
2019-02-27T02:46:01.190Z,1.70
2019-02-27T02:47:01.178Z,2.10
2019-02-27T02:48:01.174Z,1.90
2019-02-27T02:49:06.183Z,1.70
2019-02-27T02:50:02.186Z,2.20
2019-02-27T02:51:01.134Z,1.60
2019-02-27T02:52:04.580Z,1.50
2019-02-27T02:53:01.114Z,2.80
2019-02-27T02:54:02.201Z,2.90
2019-02-27T02:55:01.092Z,2.40
2019-02-27T02:56:01.118Z,2.20
2019-02-27T02:57:01.976Z,1.90
2019-02-27T02:58:01.064Z,1.70
2019-02-27T02:59:01.836Z,1.50
2019-02-27T03:00:01.767Z,1.50
2019-02-27T03:01:01.025Z,2.60
2019-02-27T03:02:01.038Z,1.90
2019-02-27T03:03:01.930Z,2.90
2019-02-27T03:04:01.004Z,3.70
2019-02-27T03:05:12.253Z,2.40
2019-02-27T03:06:00.974Z,2.50
2019-02-27T03:07:00.965Z,1.90
2019-02-27T03:08:00.991Z,2.20
2019-02-27T03:09:00.951Z,2.60
2019-02-27T03:10:06.846Z,2.30
2019-02-27T03:11:01.928Z,2.80
2019-02-27T03:12:00.916Z,2.40
2019-02-27T03:13:05.850Z,1.70
2019-02-27T03:14:01.928Z,1.90
2019-02-27T03:15:00.880Z,1.90
2019-02-27T03:16:04.785Z,2.10
2019-02-27T03:17:00.859Z,3.20
2019-02-27T03:18:00.850Z,1.90
2019-02-27T03:19:04.816Z,1.50
2019-02-27T03:20:01.915Z,1.60
2019-02-27T03:21:00.815Z,1.80
2019-02-27T03:22:03.738Z,2.00
2019-02-27T03:23:00.794Z,3.30
2019-02-27T03:24:00.780Z,1.80
2019-02-27T03:25:04.208Z,2.60
2019-02-27T03:26:00.874Z,2.20
2019-02-27T03:27:00.753Z,2.70
2019-02-27T03:28:04.656Z,3.80
2019-02-27T03:29:00.731Z,1.80
2019-02-27T03:30:00.774Z,4.80
2019-02-27T03:31:00.709Z,4.80
2019-02-27T03:32:01.394Z,4.00
2019-02-27T03:33:00.691Z,7.80
2019-02-27T03:34:08.010Z,7.50
2019-02-27T03:35:01.714Z,6.00
2019-02-27T03:36:13.717Z,7.30
2019-02-27T03:37:00.640Z,8.80
2019-02-27T03:38:00.634Z,9.90
2019-02-27T03:39:00.638Z,7.40
2019-02-27T03:40:00.608Z,7.60
2019-02-27T03:41:00.606Z,11.90
2019-02-27T03:42:00.640Z,5.50
2019-02-27T03:43:00.578Z,8.20
2019-02-27T03:44:00.577Z,8.40
2019-02-27T03:45:00.556Z,8.80
2019-02-27T03:46:03.155Z,7.90
2019-02-27T03:47:01.576Z,5.80
2019-02-27T03:48:00.526Z,5.00
2019-02-27T03:49:03.709Z,3.60
2019-02-27T03:50:00.533Z,4.30
2019-02-27T03:51:00.488Z,2.80
2019-02-27T03:52:01.431Z,3.10
2019-02-27T03:53:00.493Z,2.90
2019-02-27T03:54:00.494Z,4.60
2019-02-27T03:55:00.457Z,2.60
2019-02-27T03:56:00.437Z,2.20
2019-02-27T03:57:00.445Z,3.20
2019-02-27T03:58:00.421Z,4.20
2019-02-27T03:59:05.512Z,4.50
2019-02-27T04:00:01.459Z,2.00
2019-02-27T04:01:00.383Z,1.80
2019-02-27T04:02:05.821Z,3.80
2019-02-27T04:03:01.368Z,2.10
2019-02-27T04:04:00.352Z,2.80
2019-02-27T04:05:05.393Z,2.30
2019-02-27T04:06:01.373Z,1.90
2019-02-27T04:07:12.977Z,2.90
2019-02-27T04:08:06.862Z,1.50
2019-02-27T04:09:01.313Z,3.70
2019-02-27T04:10:00.297Z,1.80
2019-02-27T04:11:05.526Z,1.90
2019-02-27T04:12:01.445Z,2.10
2019-02-27T04:13:00.267Z,2.30
2019-02-27T04:14:04.648Z,1.80
2019-02-27T04:15:01.238Z,2.50
2019-02-27T04:16:00.225Z,2.80
2019-02-27T04:17:05.459Z,1.80
2019-02-27T04:18:01.242Z,2.50
2019-02-27T04:19:04.456Z,1.90
2019-02-27T04:20:00.966Z,2.10
2019-02-27T04:21:00.174Z,2.60
2019-02-27T04:22:01.067Z,2.10
2019-02-27T04:23:00.189Z,2.30
2019-02-27T04:24:00.145Z,2.30
2019-02-27T04:25:00.294Z,2.00
2019-02-27T04:26:05.318Z,2.50
2019-02-27T04:27:01.104Z,2.50
2019-02-27T04:28:00.139Z,1.90
2019-02-27T04:29:04.059Z,3.30
2019-02-27T04:30:01.078Z,2.30
2019-02-27T04:31:00.068Z,2.30
2019-02-27T04:32:00.062Z,2.00
2019-02-27T04:33:00.048Z,2.10
2019-02-27T04:34:01.058Z,1.80
2019-02-27T04:35:00.281Z,2.00
2019-02-27T04:36:00.014Z,2.00
2019-02-27T04:37:00.000Z,2.30
2019-02-27T04:38:12.818Z,2.20
2019-02-27T04:39:02.334Z,1.90
2019-02-27T04:39:59.967Z,2.40
2019-02-27T04:40:59.970Z,2.70
2019-02-27T04:41:59.955Z,4.10
2019-02-27T04:43:00.021Z,3.00
2019-02-27T04:43:59.930Z,2.20
2019-02-27T04:44:59.915Z,2.40
2019-02-27T04:45:59.969Z,3.20
2019-02-27T04:46:59.900Z,2.60
2019-02-27T04:47:59.892Z,2.20
2019-02-27T04:49:04.004Z,2.30
2019-02-27T04:49:59.873Z,2.50
2019-02-27T04:50:59.854Z,1.90
2019-02-27T04:51:59.897Z,2.40
2019-02-27T04:52:59.849Z,2.80
2019-02-27T04:53:59.831Z,2.40
2019-02-27T04:54:59.811Z,3.10
2019-02-27T04:55:59.803Z,3.10
2019-02-27T04:56:59.790Z,2.10
2019-02-27T04:57:59.838Z,1.90
2019-02-27T04:58:59.777Z,2.80
2019-02-27T04:59:59.755Z,2.60
2019-02-27T05:00:59.838Z,2.40
2019-02-27T05:01:59.738Z,2.40
2019-02-27T05:02:59.725Z,3.60
2019-02-27T05:04:01.398Z,2.40
2019-02-27T05:04:59.704Z,2.40
2019-02-27T05:05:59.754Z,2.20
2019-02-27T05:06:59.678Z,2.60
2019-02-27T05:07:59.670Z,2.30
2019-02-27T05:09:12.759Z,2.40
2019-02-27T05:09:59.645Z,2.30
2019-02-27T05:10:59.643Z,3.90
2019-02-27T05:11:59.636Z,2.30
2019-02-27T05:12:59.616Z,2.20
2019-02-27T05:13:59.608Z,2.70
2019-02-27T05:15:00.805Z,2.20
2019-02-27T05:15:59.582Z,2.30
2019-02-27T05:16:59.742Z,2.10
2019-02-27T05:17:59.575Z,3.30
2019-02-27T05:19:03.725Z,2.00
2019-02-27T05:19:59.546Z,2.80
2019-02-27T05:20:59.566Z,2.30
2019-02-27T05:22:01.237Z,2.50
2019-02-27T05:23:00.414Z,1.90
2019-02-27T05:23:59.501Z,2.10
2019-02-27T05:24:59.487Z,2.50
2019-02-27T05:25:59.487Z,1.90
2019-02-27T05:27:00.827Z,2.60
2019-02-27T05:28:01.525Z,2.30
2019-02-27T05:28:59.455Z,2.40
2019-02-27T05:30:00.082Z,2.70
2019-02-27T05:30:59.425Z,3.50
2019-02-27T05:31:59.412Z,2.80
2019-02-27T05:33:02.052Z,2.60
2019-02-27T05:33:59.399Z,3.60
2019-02-27T05:34:59.382Z,3.30
2019-02-27T05:35:59.378Z,2.30
2019-02-27T05:36:59.365Z,2.80
2019-02-27T05:37:59.354Z,3.40
2019-02-27T05:38:59.518Z,3.30
2019-02-27T05:40:12.530Z,2.70
2019-02-27T05:41:00.136Z,2.80
2019-02-27T05:42:00.882Z,2.40
2019-02-27T05:42:59.299Z,2.40
2019-02-27T05:43:59.298Z,2.60
2019-02-27T05:44:59.289Z,2.20
2019-02-27T05:46:02.903Z,2.20
2019-02-27T05:46:59.261Z,2.50
2019-02-27T05:47:59.251Z,1.70
2019-02-27T05:48:59.240Z,1.80
2019-02-27T05:50:00.476Z,2.10
2019-02-27T05:50:59.209Z,1.90
2019-02-27T05:51:59.204Z,2.10
2019-02-27T05:52:59.193Z,2.10
2019-02-27T05:53:59.269Z,1.90
2019-02-27T05:54:59.171Z,1.80
2019-02-27T05:55:59.202Z,1.70
2019-02-27T05:57:00.045Z,1.80
2019-02-27T05:57:59.137Z,2.00
2019-02-27T05:58:59.132Z,1.90
2019-02-27T06:00:02.180Z,1.70
2019-02-27T06:00:59.138Z,1.60
2019-02-27T06:01:59.132Z,2.80
2019-02-27T06:02:59.088Z,1.80
2019-02-27T06:03:59.080Z,3.00
2019-02-27T06:04:59.744Z,2.20
2019-02-27T06:05:59.074Z,1.50
2019-02-27T06:06:59.059Z,1.60
2019-02-27T06:08:02.020Z,3.00
2019-02-27T06:08:59.023Z,2.40
2019-02-27T06:09:59.121Z,1.40
2019-02-27T06:11:11.826Z,1.40
2019-02-27T06:11:58.990Z,1.60
2019-02-27T06:12:58.983Z,2.20
2019-02-27T06:13:59.007Z,1.80
2019-02-27T06:14:58.964Z,1.40
2019-02-27T06:16:02.873Z,1.50
2019-02-27T06:16:58.944Z,1.50
2019-02-27T06:17:58.929Z,1.50
2019-02-27T06:18:58.912Z,1.70
2019-02-27T06:19:59.080Z,1.40
2019-02-27T06:20:58.899Z,1.70
2019-02-27T06:21:58.880Z,2.40
2019-02-27T06:22:58.875Z,1.60
2019-02-27T06:23:58.874Z,1.50
2019-02-27T06:24:58.856Z,1.40
2019-02-27T06:26:00.125Z,1.70
2019-02-27T06:26:58.849Z,1.50
2019-02-27T06:27:58.828Z,1.40
2019-02-27T06:28:58.806Z,1.60
2019-02-27T06:29:59.788Z,2.20
2019-02-27T06:30:58.822Z,1.60
2019-02-27T06:31:58.780Z,1.40
2019-02-27T06:32:58.764Z,1.50
2019-02-27T06:33:59.095Z,1.60
2019-02-27T06:34:59.438Z,1.60
2019-02-27T06:35:58.731Z,1.10
2019-02-27T06:36:58.764Z,1.50
2019-02-27T06:37:58.716Z,2.20
2019-02-27T06:39:00.448Z,2.00
2019-02-27T06:39:58.684Z,1.30
2019-02-27T06:40:59.387Z,1.50
2019-02-27T06:42:10.655Z,1.60
2019-02-27T06:42:58.657Z,2.40
2019-02-27T06:43:58.922Z,1.50
2019-02-27T06:44:58.638Z,2.00
2019-02-27T06:45:58.644Z,1.90
2019-02-27T06:46:58.615Z,3.30
2019-02-27T06:47:58.646Z,1.40
2019-02-27T06:48:58.606Z,1.90
2019-02-27T06:49:58.579Z,1.90
2019-02-27T06:51:00.825Z,1.50
2019-02-27T06:51:58.569Z,1.50
2019-02-27T06:52:58.584Z,1.80
2019-02-27T06:53:58.578Z,1.90
2019-02-27T06:54:58.537Z,1.30
2019-02-27T06:56:02.970Z,2.30
2019-02-27T06:56:58.574Z,1.50
2019-02-27T06:57:58.516Z,1.60
2019-02-27T06:58:58.518Z,1.10
2019-02-27T07:00:02.177Z,1.40
2019-02-27T07:00:58.466Z,2.90
2019-02-27T07:01:58.445Z,1.90
2019-02-27T07:02:58.440Z,2.50
2019-02-27T07:03:58.449Z,2.00
2019-02-27T07:04:58.412Z,1.20
2019-02-27T07:05:58.460Z,2.50
2019-02-27T07:07:00.551Z,1.50
2019-02-27T07:07:58.380Z,1.80
2019-02-27T07:08:58.371Z,1.50
2019-02-27T07:09:58.372Z,1.30
2019-02-27T07:11:09.927Z,1.30
2019-02-27T07:11:59.364Z,1.60
2019-02-27T07:13:10.708Z,1.50
2019-02-27T07:13:58.313Z,1.60
2019-02-27T07:14:58.308Z,2.30
2019-02-27T07:15:58.305Z,2.10
2019-02-27T07:16:58.321Z,2.60
2019-02-27T07:17:58.273Z,1.90
2019-02-27T07:18:58.273Z,2.60
2019-02-27T07:19:58.249Z,2.20
2019-02-27T07:20:59.191Z,2.70
2019-02-27T07:21:58.232Z,2.20
2019-02-27T07:22:58.424Z,2.10
2019-02-27T07:23:58.686Z,1.90
2019-02-27T07:24:58.199Z,2.10
2019-02-27T07:25:58.207Z,1.60
2019-02-27T07:26:58.171Z,4.60
2019-02-27T07:27:58.171Z,2.30
2019-02-27T07:28:58.192Z,3.20
2019-02-27T07:29:58.142Z,5.10
2019-02-27T07:30:58.133Z,4.60
2019-02-27T07:31:58.126Z,2.90
2019-02-27T07:32:58.115Z,3.20
2019-02-27T07:33:58.094Z,4.20
2019-02-27T07:34:58.126Z,2.80
2019-02-27T07:35:58.078Z,2.80
2019-02-27T07:36:58.068Z,2.10
2019-02-27T07:37:58.070Z,2.20
2019-02-27T07:38:58.312Z,3.60
2019-02-27T07:39:58.034Z,1.80
2019-02-27T07:40:58.056Z,5.00
2019-02-27T07:41:58.015Z,4.00
2019-02-27T07:42:58.016Z,2.90
2019-02-27T07:44:10.772Z,3.20
2019-02-27T07:44:57.982Z,3.20
2019-02-27T07:45:57.975Z,4.30
2019-02-27T07:46:58.109Z,3.40
2019-02-27T07:47:57.951Z,2.80
2019-02-27T07:48:57.937Z,2.40
2019-02-27T07:49:57.929Z,2.60
2019-02-27T07:50:57.923Z,2.30
2019-02-27T07:51:58.081Z,3.00
2019-02-27T07:52:57.939Z,2.30
2019-02-27T07:53:57.886Z,3.60
2019-02-27T07:54:57.873Z,3.70
2019-02-27T07:55:57.858Z,2.30
2019-02-27T07:56:57.847Z,5.10
2019-02-27T07:57:58.768Z,3.60
2019-02-27T07:58:57.866Z,4.70
2019-02-27T07:59:57.814Z,3.40
2019-02-27T08:00:57.814Z,4.00
2019-02-27T08:02:02.341Z,2.70
2019-02-27T08:02:58.793Z,4.10
2019-02-27T08:03:57.774Z,3.90
2019-02-27T08:04:57.938Z,5.70
2019-02-27T08:05:59.780Z,3.60
2019-02-27T08:06:57.742Z,3.70
2019-02-27T08:07:57.739Z,3.50
2019-02-27T08:08:57.842Z,4.90
2019-02-27T08:09:57.715Z,4.40
2019-02-27T08:10:57.743Z,4.00
2019-02-27T08:11:57.697Z,4.30
2019-02-27T08:12:57.692Z,4.30
2019-02-27T08:13:57.675Z,3.70
2019-02-27T08:15:10.868Z,3.30
2019-02-27T08:15:58.107Z,6.50
2019-02-27T08:16:58.184Z,4.40
2019-02-27T08:17:58.642Z,6.60
2019-02-27T08:18:57.626Z,4.30
2019-02-27T08:19:57.613Z,4.70
2019-02-27T08:20:57.599Z,5.00
2019-02-27T08:21:57.585Z,4.60
2019-02-27T08:22:57.932Z,3.60
2019-02-27T08:23:57.562Z,4.10
2019-02-27T08:24:57.566Z,4.70
2019-02-27T08:25:57.545Z,3.70
2019-02-27T08:26:57.529Z,5.80
2019-02-27T08:27:57.514Z,3.50
2019-02-27T08:28:57.555Z,3.90
2019-02-27T08:29:59.637Z,4.10
2019-02-27T08:30:57.530Z,4.00
2019-02-27T08:32:00.877Z,4.50
2019-02-27T08:32:57.467Z,3.60
2019-02-27T08:33:57.459Z,3.40
2019-02-27T08:34:57.491Z,5.00
2019-02-27T08:35:57.455Z,4.20
2019-02-27T08:36:57.429Z,4.40
2019-02-27T08:38:02.539Z,3.70
2019-02-27T08:38:58.418Z,4.10
2019-02-27T08:39:57.415Z,4.80
2019-02-27T08:40:58.342Z,4.20
2019-02-27T08:41:57.385Z,4.30
2019-02-27T08:42:57.399Z,2.90
2019-02-27T08:43:57.350Z,4.50
2019-02-27T08:44:57.329Z,3.20
2019-02-27T08:46:09.918Z,4.40
2019-02-27T08:46:57.302Z,3.10
2019-02-27T08:47:57.297Z,4.20
2019-02-27T08:48:57.287Z,4.90
2019-02-27T08:49:58.059Z,3.70
2019-02-27T08:50:57.260Z,5.90
2019-02-27T08:51:57.260Z,4.60
2019-02-27T08:52:57.962Z,3.30
2019-02-27T08:53:59.286Z,4.20
2019-02-27T08:54:57.747Z,4.40
2019-02-27T08:55:57.208Z,4.10
2019-02-27T08:56:57.197Z,4.30
2019-02-27T08:57:57.268Z,7.50
2019-02-27T08:58:57.192Z,4.50
2019-02-27T08:59:57.167Z,5.10
2019-02-27T09:00:57.157Z,4.40
2019-02-27T09:01:57.143Z,5.40
2019-02-27T09:02:57.130Z,3.90
2019-02-27T09:03:57.126Z,2.70
2019-02-27T09:04:57.151Z,6.70
2019-02-27T09:05:57.097Z,5.70
2019-02-27T09:07:02.229Z,4.20
2019-02-27T09:07:58.092Z,5.40
2019-02-27T09:08:57.067Z,4.70
2019-02-27T09:09:57.054Z,6.90
2019-02-27T09:10:57.082Z,7.30
2019-02-27T09:11:57.038Z,2.80
2019-02-27T09:13:05.074Z,5.20
2019-02-27T09:13:58.016Z,3.80
2019-02-27T09:14:57.014Z,5.80
2019-02-27T09:15:57.008Z,4.60
2019-02-27T09:17:09.327Z,5.20
2019-02-27T09:17:59.159Z,4.60
2019-02-27T09:18:56.960Z,6.00
2019-02-27T09:19:56.948Z,5.00
2019-02-27T09:20:56.948Z,5.80
2019-02-27T09:21:56.924Z,3.50
2019-02-27T09:22:57.101Z,4.20
2019-02-27T09:23:56.908Z,5.30
2019-02-27T09:24:57.226Z,6.70
2019-02-27T09:25:57.485Z,6.10
2019-02-27T09:26:56.872Z,4.70
2019-02-27T09:27:56.865Z,6.20
2019-02-27T09:28:56.867Z,6.60
2019-02-27T09:29:56.841Z,4.20
2019-02-27T09:30:56.827Z,5.20
2019-02-27T09:31:56.833Z,6.70
2019-02-27T09:32:56.818Z,5.40
2019-02-27T09:33:56.831Z,9.60
2019-02-27T09:34:57.082Z,5.20
2019-02-27T09:35:56.788Z,6.60
2019-02-27T09:36:56.758Z,6.30
2019-02-27T09:37:56.743Z,4.60
2019-02-27T09:38:57.628Z,6.40
2019-02-27T09:39:56.748Z,6.10
2019-02-27T09:40:56.724Z,6.10
2019-02-27T09:41:56.705Z,7.30
2019-02-27T09:42:56.695Z,6.90
2019-02-27T09:43:58.567Z,5.60
2019-02-27T09:44:56.714Z,7.60
2019-02-27T09:45:56.661Z,6.20
2019-02-27T09:46:56.685Z,5.70
2019-02-27T09:48:09.311Z,5.80
2019-02-27T09:48:56.622Z,6.90
2019-02-27T09:49:56.615Z,5.80
2019-02-27T09:50:57.073Z,6.70
2019-02-27T09:51:57.007Z,6.70
2019-02-27T09:52:56.583Z,6.80
2019-02-27T09:53:56.587Z,7.80
2019-02-27T09:54:56.559Z,6.60
2019-02-27T09:55:56.567Z,7.00
2019-02-27T09:56:56.569Z,6.20
2019-02-27T09:57:56.539Z,6.50
2019-02-27T09:58:56.519Z,5.50
2019-02-27T09:59:56.509Z,4.30
2019-02-27T10:01:00.284Z,5.50
2019-02-27T10:01:57.519Z,5.80
2019-02-27T10:02:58.184Z,9.20
2019-02-27T10:03:56.478Z,5.50
2019-02-27T10:05:01.472Z,8.00
2019-02-27T10:05:57.441Z,7.60
2019-02-27T10:06:56.448Z,4.60
2019-02-27T10:07:57.476Z,8.00
2019-02-27T10:08:59.055Z,7.10
2019-02-27T10:09:56.417Z,6.90
2019-02-27T10:10:56.392Z,5.80
2019-02-27T10:11:56.392Z,6.50
2019-02-27T10:12:56.459Z,7.00
2019-02-27T10:13:56.411Z,5.70
2019-02-27T10:14:56.434Z,5.40
2019-02-27T10:16:00.543Z,6.50
2019-02-27T10:16:56.334Z,6.90
2019-02-27T10:17:56.322Z,8.90
2019-02-27T10:19:09.170Z,7.60
2019-02-27T10:20:01.413Z,5.60
2019-02-27T10:20:57.287Z,6.50
2019-02-27T10:21:56.266Z,9.20
2019-02-27T10:22:56.296Z,7.20
2019-02-27T10:23:56.245Z,6.30
2019-02-27T10:24:56.236Z,6.10
2019-02-27T10:25:56.271Z,4.80
2019-02-27T10:26:56.229Z,5.70
2019-02-27T10:27:56.203Z,5.90
2019-02-27T10:28:56.200Z,6.20
2019-02-27T10:29:56.185Z,6.90
2019-02-27T10:30:56.179Z,4.50
2019-02-27T10:31:58.228Z,6.90
2019-02-27T10:32:56.158Z,5.40
2019-02-27T10:33:56.153Z,7.10
2019-02-27T10:34:56.143Z,4.60
2019-02-27T10:35:56.149Z,6.20
2019-02-27T10:36:56.129Z,4.40
2019-02-27T10:37:56.321Z,5.50
2019-02-27T10:38:56.092Z,5.50
2019-02-27T10:39:56.072Z,7.40
2019-02-27T10:40:56.068Z,5.70
2019-02-27T10:41:56.057Z,6.50
2019-02-27T10:42:56.057Z,6.70
2019-02-27T10:43:56.572Z,5.50
2019-02-27T10:44:56.032Z,4.40
2019-02-27T10:45:56.015Z,8.10
2019-02-27T10:46:57.294Z,7.20
2019-02-27T10:47:55.994Z,6.50
2019-02-27T10:48:55.979Z,5.50
2019-02-27T10:50:09.911Z,6.60
2019-02-27T10:50:55.958Z,7.80
2019-02-27T10:51:55.948Z,4.30
2019-02-27T10:52:55.946Z,5.90
2019-02-27T10:53:55.928Z,4.00
2019-02-27T10:54:55.922Z,5.50
2019-02-27T10:55:56.135Z,4.70
2019-02-27T10:56:56.574Z,5.20
2019-02-27T10:57:55.898Z,6.30
2019-02-27T10:58:55.876Z,6.20
2019-02-27T10:59:55.901Z,4.00
2019-02-27T11:00:58.141Z,5.10
2019-02-27T11:01:56.840Z,3.40
2019-02-27T11:02:55.847Z,2.30
2019-02-27T11:03:55.818Z,5.70
2019-02-27T11:04:55.814Z,4.10
2019-02-27T11:05:55.819Z,3.40
2019-02-27T11:06:55.820Z,4.50
2019-02-27T11:07:55.793Z,4.30
2019-02-27T11:08:55.768Z,5.70
2019-02-27T11:09:55.757Z,4.70
2019-02-27T11:10:55.772Z,5.90
2019-02-27T11:11:55.732Z,5.40
2019-02-27T11:12:55.739Z,4.20
2019-02-27T11:13:55.719Z,8.40
2019-02-27T11:14:55.706Z,4.60
2019-02-27T11:15:55.688Z,4.80
2019-02-27T11:16:55.679Z,3.90
2019-02-27T11:17:55.665Z,5.40
2019-02-27T11:18:55.694Z,4.80
2019-02-27T11:19:55.648Z,4.70
2019-02-27T11:21:08.655Z,6.50
2019-02-27T11:21:58.316Z,4.00
2019-02-27T11:22:55.618Z,4.80
2019-02-27T11:23:55.597Z,5.40
2019-02-27T11:24:55.612Z,4.40
2019-02-27T11:25:57.000Z,3.20
2019-02-27T11:26:56.998Z,6.90
2019-02-27T11:27:55.558Z,5.70
2019-02-27T11:28:57.693Z,8.00
2019-02-27T11:29:59.278Z,3.20
2019-02-27T11:30:56.570Z,4.10
2019-02-27T11:31:55.513Z,5.70
2019-02-27T11:32:57.877Z,6.50
2019-02-27T11:33:55.492Z,7.20
2019-02-27T11:34:55.484Z,3.70
2019-02-27T11:35:55.477Z,4.70
2019-02-27T11:36:55.520Z,6.20
2019-02-27T11:37:55.444Z,4.40
2019-02-27T11:38:56.657Z,6.10
2019-02-27T11:39:55.436Z,5.10
2019-02-27T11:40:55.411Z,5.80
2019-02-27T11:41:55.420Z,6.70
2019-02-27T11:42:55.414Z,8.00
2019-02-27T11:43:55.392Z,5.20
2019-02-27T11:44:55.381Z,4.70
2019-02-27T11:45:57.997Z,5.80
2019-02-27T11:46:58.985Z,3.50
2019-02-27T11:47:55.338Z,4.30
2019-02-27T11:48:57.101Z,4.90
2019-02-27T11:49:55.321Z,3.30
2019-02-27T11:50:55.321Z,7.10
2019-02-27T11:52:08.593Z,5.70
2019-02-27T11:52:55.293Z,6.10
2019-02-27T11:53:55.282Z,4.70
2019-02-27T11:54:55.276Z,4.50
2019-02-27T11:55:55.253Z,5.30
2019-02-27T11:56:56.930Z,4.80
2019-02-27T11:57:55.233Z,7.20
2019-02-27T11:58:55.257Z,4.30
2019-02-27T11:59:55.211Z,5.90
2019-02-27T12:00:55.203Z,7.10
2019-02-27T12:01:56.158Z,5.40
2019-02-27T12:02:55.192Z,5.40
2019-02-27T12:03:55.176Z,6.70
2019-02-27T12:04:56.670Z,4.40
2019-02-27T12:05:55.157Z,7.60
2019-02-27T12:06:55.137Z,7.00
2019-02-27T12:07:55.131Z,8.10
2019-02-27T12:08:59.577Z,6.40
2019-02-27T12:09:56.496Z,6.10
2019-02-27T12:10:55.118Z,5.70
2019-02-27T12:11:55.082Z,6.20
2019-02-27T12:12:59.685Z,6.60
2019-02-27T12:13:56.063Z,4.30
2019-02-27T12:14:55.058Z,6.50
2019-02-27T12:15:55.043Z,6.10
2019-02-27T12:16:55.060Z,6.00
2019-02-27T12:17:59.892Z,10.50
2019-02-27T12:18:56.022Z,4.70
2019-02-27T12:19:54.995Z,6.00
2019-02-27T12:20:54.987Z,6.50
2019-02-27T12:21:59.518Z,4.50
2019-02-27T12:24:09.363Z,5.70
2019-02-27T12:25:09.311Z,8.20
2019-02-27T12:26:09.307Z,6.70
2019-02-27T12:27:11.819Z,5.00
2019-02-27T12:28:10.270Z,4.70
2019-02-27T12:29:09.261Z,7.00
2019-02-27T12:30:09.289Z,7.20
2019-02-27T12:31:10.736Z,7.50
2019-02-27T12:32:09.240Z,7.30
2019-02-27T12:33:09.237Z,6.00
2019-02-27T12:34:09.238Z,4.50
2019-02-27T12:35:10.864Z,6.40
2019-02-27T12:36:09.250Z,8.70
2019-02-27T12:37:19.115Z,6.30
2019-02-27T12:38:11.442Z,6.00
2019-02-27T12:39:09.162Z,8.00
2019-02-27T12:40:09.170Z,6.10
2019-02-27T12:41:09.146Z,8.40
2019-02-27T12:42:09.227Z,7.50
2019-02-27T12:43:09.123Z,6.50
2019-02-27T12:44:09.109Z,7.90
2019-02-27T12:45:09.111Z,4.90
2019-02-27T12:46:09.764Z,7.60
2019-02-27T12:47:09.073Z,7.10
2019-02-27T12:48:09.119Z,6.50
2019-02-27T12:49:09.044Z,7.10
2019-02-27T12:50:09.045Z,7.00
2019-02-27T12:51:09.050Z,7.30
2019-02-27T12:52:12.117Z,7.20
2019-02-27T12:53:09.029Z,6.10
2019-02-27T12:54:19.502Z,8.10
2019-02-27T12:55:08.981Z,8.60
2019-02-27T12:56:09.125Z,8.00
2019-02-27T12:57:08.955Z,7.50
2019-02-27T12:58:08.943Z,4.80
2019-02-27T12:59:08.941Z,5.90
2019-02-27T13:00:09.086Z,7.50
2019-02-27T13:01:08.912Z,9.40
2019-02-27T13:02:10.865Z,11.50
2019-02-27T13:03:09.488Z,7.60
2019-02-27T13:04:08.879Z,9.30
2019-02-27T13:05:08.866Z,8.10
2019-02-27T13:06:08.915Z,6.10
2019-02-27T13:07:10.779Z,9.30
2019-02-27T13:08:08.835Z,7.80
2019-02-27T13:09:08.833Z,7.50
2019-02-27T13:10:08.816Z,8.80
2019-02-27T13:11:08.800Z,8.50
2019-02-27T13:12:08.807Z,10.00
2019-02-27T13:13:08.785Z,8.70
2019-02-27T13:14:08.808Z,6.70
2019-02-27T13:15:08.763Z,8.60
2019-02-27T13:16:08.807Z,6.80
2019-02-27T13:17:08.751Z,8.70
2019-02-27T13:18:08.738Z,7.40
2019-02-27T13:19:08.722Z,8.40
2019-02-27T13:20:09.166Z,6.80
2019-02-27T13:21:08.710Z,6.00